sensor_id;sensor_type;location;lat;lon;timestamp;P1;durP1;ratioP1;P2;durP2;ratioP2
69754;SDS011;57023;52.218;5.158;2022-08-11T00:01:27;7.28;;;5.22;;
69754;SDS011;57023;52.218;5.158;2022-08-11T00:03:57;10.90;;;5.37;;
69754;SDS011;57023;52.218;5.158;2022-08-11T00:06:35;7.57;;;5.22;;
69754;SDS011;57023;52.218;5.158;2022-08-11T00:09:02;7.85;;;5.20;;
69754;SDS011;57023;52.218;5.158;2022-08-11T00:11:33;7.90;;;5.47;;
69754;SDS011;57023;52.218;5.158;2022-08-11T00:14:04;9.60;;;5.53;;
69754;SDS011;57023;52.218;5.158;2022-08-11T00:19:29;9.63;;;5.57;;
69754;SDS011;57023;52.218;5.158;2022-08-11T00:21:57;9.93;;;5.47;;
69754;SDS011;57023;52.218;5.158;2022-08-11T00:24:23;8.90;;;5.50;;
69754;SDS011;57023;52.218;5.158;2022-08-11T00:26:49;9.32;;;5.55;;
69754;SDS011;57023;52.218;5.158;2022-08-11T00:29:16;7.32;;;5.65;;
69754;SDS011;57023;52.218;5.158;2022-08-11T00:31:48;9.07;;;5.75;;
69754;SDS011;57023;52.218;5.158;2022-08-11T00:34:16;8.77;;;5.43;;
69754;SDS011;57023;52.218;5.158;2022-08-11T00:36:46;9.07;;;5.88;;
69754;SDS011;57023;52.218;5.158;2022-08-11T00:39:15;9.35;;;5.72;;
69754;SDS011;57023;52.218;5.158;2022-08-11T00:44:28;9.30;;;5.65;;
69754;SDS011;57023;52.218;5.158;2022-08-11T00:55:22;9.57;;;6.10;;
69754;SDS011;57023;52.218;5.158;2022-08-11T01:01:19;11.02;;;6.50;;
69754;SDS011;57023;52.218;5.158;2022-08-11T01:04:08;8.10;;;5.73;;
69754;SDS011;57023;52.218;5.158;2022-08-11T01:07:08;8.98;;;6.07;;
69754;SDS011;57023;52.218;5.158;2022-08-11T01:13:07;9.48;;;6.47;;
69754;SDS011;57023;52.218;5.158;2022-08-11T01:16:00;13.32;;;6.53;;
69754;SDS011;57023;52.218;5.158;2022-08-11T01:19:19;9.93;;;6.18;;
69754;SDS011;57023;52.218;5.158;2022-08-11T01:27:20;8.38;;;6.03;;
69754;SDS011;57023;52.218;5.158;2022-08-11T01:45:33;12.07;;;6.10;;
69754;SDS011;57023;52.218;5.158;2022-08-11T01:57:40;8.98;;;6.35;;
69754;SDS011;57023;52.218;5.158;2022-08-11T02:02:34;11.18;;;6.40;;
69754;SDS011;57023;52.218;5.158;2022-08-11T02:10:42;11.32;;;6.60;;
69754;SDS011;57023;52.218;5.158;2022-08-11T02:13:34;8.70;;;6.25;;
69754;SDS011;57023;52.218;5.158;2022-08-11T02:16:20;12.52;;;6.88;;
69754;SDS011;57023;52.218;5.158;2022-08-11T02:19:04;10.75;;;6.80;;
69754;SDS011;57023;52.218;5.158;2022-08-11T02:28:22;9.50;;;6.50;;
69754;SDS011;57023;52.218;5.158;2022-08-11T02:37:16;11.98;;;6.82;;
69754;SDS011;57023;52.218;5.158;2022-08-11T02:53:39;13.55;;;7.65;;
69754;SDS011;57023;52.218;5.158;2022-08-11T02:56:18;10.73;;;7.53;;
69754;SDS011;57023;52.218;5.158;2022-08-11T03:02:14;10.13;;;7.45;;
69754;SDS011;57023;52.218;5.158;2022-08-11T03:16:13;10.07;;;7.88;;
69754;SDS011;57023;52.218;5.158;2022-08-11T03:22:12;11.07;;;7.97;;
69754;SDS011;57023;52.218;5.158;2022-08-11T03:25:05;11.02;;;7.88;;
69754;SDS011;57023;52.218;5.158;2022-08-11T03:30:34;13.27;;;8.10;;
69754;SDS011;57023;52.218;5.158;2022-08-11T03:33:23;12.55;;;7.82;;
69754;SDS011;57023;52.218;5.158;2022-08-11T03:39:15;10.55;;;7.72;;
69754;SDS011;57023;52.218;5.158;2022-08-11T03:42:17;12.82;;;8.10;;
69754;SDS011;57023;52.218;5.158;2022-08-11T03:50:18;11.00;;;8.35;;
69754;SDS011;57023;52.218;5.158;2022-08-11T03:53:09;14.80;;;8.43;;
69754;SDS011;57023;52.218;5.158;2022-08-11T04:04:36;13.30;;;8.55;;
69754;SDS011;57023;52.218;5.158;2022-08-11T04:12:27;13.65;;;8.07;;
69754;SDS011;57023;52.218;5.158;2022-08-11T04:15:12;13.25;;;8.25;;
69754;SDS011;57023;52.218;5.158;2022-08-11T04:29:09;12.15;;;8.60;;
69754;SDS011;57023;52.218;5.158;2022-08-11T04:31:43;11.35;;;8.82;;
69754;SDS011;57023;52.218;5.158;2022-08-11T04:37:10;11.93;;;8.23;;
69754;SDS011;57023;52.218;5.158;2022-08-11T04:57:57;12.20;;;8.30;;
69754;SDS011;57023;52.218;5.158;2022-08-11T05:01:15;16.83;;;8.88;;
69754;SDS011;57023;52.218;5.158;2022-08-11T05:12:52;12.13;;;8.00;;
69754;SDS011;57023;52.218;5.158;2022-08-11T05:15:24;15.25;;;8.38;;
69754;SDS011;57023;52.218;5.158;2022-08-11T05:21:05;12.27;;;8.57;;
69754;SDS011;57023;52.218;5.158;2022-08-11T05:24:19;12.98;;;9.05;;
69754;SDS011;57023;52.218;5.158;2022-08-11T05:27:04;11.63;;;8.02;;
69754;SDS011;57023;52.218;5.158;2022-08-11T05:29:55;12.05;;;8.45;;
69754;SDS011;57023;52.218;5.158;2022-08-11T05:32:44;12.88;;;8.52;;
69754;SDS011;57023;52.218;5.158;2022-08-11T05:35:33;14.90;;;8.35;;
69754;SDS011;57023;52.218;5.158;2022-08-11T05:38:10;14.80;;;8.30;;
69754;SDS011;57023;52.218;5.158;2022-08-11T05:41:03;12.25;;;8.40;;
69754;SDS011;57023;52.218;5.158;2022-08-11T05:43:47;12.35;;;8.23;;
69754;SDS011;57023;52.218;5.158;2022-08-11T05:46:37;14.02;;;8.55;;
69754;SDS011;57023;52.218;5.158;2022-08-11T05:49:23;12.80;;;8.10;;
69754;SDS011;57023;52.218;5.158;2022-08-11T05:52:12;13.63;;;8.10;;
69754;SDS011;57023;52.218;5.158;2022-08-11T05:55:04;12.55;;;8.25;;
69754;SDS011;57023;52.218;5.158;2022-08-11T05:57:54;11.98;;;8.00;;
69754;SDS011;57023;52.218;5.158;2022-08-11T06:00:21;12.30;;;8.20;;
69754;SDS011;57023;52.218;5.158;2022-08-11T06:05:17;12.98;;;7.53;;
69754;SDS011;57023;52.218;5.158;2022-08-11T06:07:43;13.38;;;7.60;;
69754;SDS011;57023;52.218;5.158;2022-08-11T06:10:09;11.43;;;7.70;;
69754;SDS011;57023;52.218;5.158;2022-08-11T06:12:35;10.02;;;7.63;;
69754;SDS011;57023;52.218;5.158;2022-08-11T06:15:03;10.30;;;7.47;;
69754;SDS011;57023;52.218;5.158;2022-08-11T06:17:30;13.48;;;7.38;;
69754;SDS011;57023;52.218;5.158;2022-08-11T06:20:00;13.82;;;7.50;;
69754;SDS011;57023;52.218;5.158;2022-08-11T06:22:28;11.57;;;7.53;;
69754;SDS011;57023;52.218;5.158;2022-08-11T06:24:55;11.05;;;7.03;;
69754;SDS011;57023;52.218;5.158;2022-08-11T06:27:23;10.90;;;7.18;;
69754;SDS011;57023;52.218;5.158;2022-08-11T06:29:50;9.98;;;7.05;;
69754;SDS011;57023;52.218;5.158;2022-08-11T06:32:17;10.82;;;6.75;;
69754;SDS011;57023;52.218;5.158;2022-08-11T06:34:53;12.02;;;7.45;;
69754;SDS011;57023;52.218;5.158;2022-08-11T06:40:08;18.70;;;8.38;;
69754;SDS011;57023;52.218;5.158;2022-08-11T06:47:59;12.65;;;8.85;;
69754;SDS011;57023;52.218;5.158;2022-08-11T06:50:26;13.80;;;9.25;;
69754;SDS011;57023;52.218;5.158;2022-08-11T06:53:11;12.33;;;8.90;;
69754;SDS011;57023;52.218;5.158;2022-08-11T06:55:40;12.18;;;8.60;;
69754;SDS011;57023;52.218;5.158;2022-08-11T06:58:29;13.23;;;8.95;;
69754;SDS011;57023;52.218;5.158;2022-08-11T07:04:12;12.60;;;8.30;;
69754;SDS011;57023;52.218;5.158;2022-08-11T07:07:22;10.60;;;8.18;;
69754;SDS011;57023;52.218;5.158;2022-08-11T07:10:23;13.63;;;8.02;;
69754;SDS011;57023;52.218;5.158;2022-08-11T07:16:07;11.65;;;7.30;;
69754;SDS011;57023;52.218;5.158;2022-08-11T07:18:34;13.43;;;8.07;;
69754;SDS011;57023;52.218;5.158;2022-08-11T07:24:12;11.50;;;7.82;;
69754;SDS011;57023;52.218;5.158;2022-08-11T07:26:58;13.25;;;7.15;;
69754;SDS011;57023;52.218;5.158;2022-08-11T07:29:44;10.80;;;7.72;;
69754;SDS011;57023;52.218;5.158;2022-08-11T07:32:27;10.13;;;6.80;;
69754;SDS011;57023;52.218;5.158;2022-08-11T07:35:11;13.07;;;7.35;;
69754;SDS011;57023;52.218;5.158;2022-08-11T07:37:39;9.98;;;6.90;;
69754;SDS011;57023;52.218;5.158;2022-08-11T07:40:05;10.73;;;7.15;;
69754;SDS011;57023;52.218;5.158;2022-08-11T07:42:32;13.13;;;7.00;;
69754;SDS011;57023;52.218;5.158;2022-08-11T07:45:01;13.02;;;7.10;;
69754;SDS011;57023;52.218;5.158;2022-08-11T07:47:48;11.93;;;6.78;;
69754;SDS011;57023;52.218;5.158;2022-08-11T07:50:33;13.50;;;6.30;;
69754;SDS011;57023;52.218;5.158;2022-08-11T07:53:17;10.80;;;6.32;;
69754;SDS011;57023;52.218;5.158;2022-08-11T07:55:46;15.13;;;6.90;;
69754;SDS011;57023;52.218;5.158;2022-08-11T07:58:13;8.93;;;6.50;;
69754;SDS011;57023;52.218;5.158;2022-08-11T08:00:57;10.00;;;6.60;;
69754;SDS011;57023;52.218;5.158;2022-08-11T08:03:42;11.90;;;6.47;;
69754;SDS011;57023;52.218;5.158;2022-08-11T08:06:27;9.05;;;6.57;;
69754;SDS011;57023;52.218;5.158;2022-08-11T08:09:11;12.05;;;7.78;;
69754;SDS011;57023;52.218;5.158;2022-08-11T08:11:56;10.95;;;6.72;;
69754;SDS011;57023;52.218;5.158;2022-08-11T08:14:42;9.65;;;6.50;;
69754;SDS011;57023;52.218;5.158;2022-08-11T08:17:26;10.30;;;6.47;;
69754;SDS011;57023;52.218;5.158;2022-08-11T08:20:12;10.88;;;6.60;;
69754;SDS011;57023;52.218;5.158;2022-08-11T08:22:38;14.02;;;7.07;;
69754;SDS011;57023;52.218;5.158;2022-08-11T08:25:04;11.60;;;6.90;;
69754;SDS011;57023;52.218;5.158;2022-08-11T08:27:31;10.90;;;6.47;;
69754;SDS011;57023;52.218;5.158;2022-08-11T08:29:57;13.55;;;6.57;;
69754;SDS011;57023;52.218;5.158;2022-08-11T08:32:42;13.95;;;7.55;;
69754;SDS011;57023;52.218;5.158;2022-08-11T08:35:11;13.30;;;7.07;;
69754;SDS011;57023;52.218;5.158;2022-08-11T08:37:37;9.57;;;6.38;;
69754;SDS011;57023;52.218;5.158;2022-08-11T08:40:04;11.60;;;6.40;;
69754;SDS011;57023;52.218;5.158;2022-08-11T08:42:31;13.10;;;6.45;;
69754;SDS011;57023;52.218;5.158;2022-08-11T08:45:18;10.57;;;6.45;;
69754;SDS011;57023;52.218;5.158;2022-08-11T08:47:46;7.57;;;5.35;;
69754;SDS011;57023;52.218;5.158;2022-08-11T08:50:16;9.90;;;5.80;;
69754;SDS011;57023;52.218;5.158;2022-08-11T08:52:53;9.45;;;5.40;;
69754;SDS011;57023;52.218;5.158;2022-08-11T08:55:24;9.75;;;5.60;;
69754;SDS011;57023;52.218;5.158;2022-08-11T08:57:51;11.68;;;5.82;;
69754;SDS011;57023;52.218;5.158;2022-08-11T09:00:19;12.40;;;5.88;;
69754;SDS011;57023;52.218;5.158;2022-08-11T09:02:45;9.15;;;5.68;;
69754;SDS011;57023;52.218;5.158;2022-08-11T09:05:11;9.33;;;5.57;;
69754;SDS011;57023;52.218;5.158;2022-08-11T09:07:37;7.30;;;5.80;;
69754;SDS011;57023;52.218;5.158;2022-08-11T09:10:03;7.47;;;5.50;;
69754;SDS011;57023;52.218;5.158;2022-08-11T09:12:30;8.52;;;5.80;;
69754;SDS011;57023;52.218;5.158;2022-08-11T09:14:56;8.02;;;5.72;;
69754;SDS011;57023;52.218;5.158;2022-08-11T09:17:25;11.07;;;5.70;;
69754;SDS011;57023;52.218;5.158;2022-08-11T09:22:22;11.30;;;5.97;;
69754;SDS011;57023;52.218;5.158;2022-08-11T09:25:07;10.10;;;5.82;;
69754;SDS011;57023;52.218;5.158;2022-08-11T09:27:51;10.77;;;6.25;;
69754;SDS011;57023;52.218;5.158;2022-08-11T09:30:18;9.25;;;6.03;;
69754;SDS011;57023;52.218;5.158;2022-08-11T09:32:44;11.23;;;5.95;;
69754;SDS011;57023;52.218;5.158;2022-08-11T09:35:10;12.47;;;6.20;;
69754;SDS011;57023;52.218;5.158;2022-08-11T09:37:36;11.77;;;5.88;;
69754;SDS011;57023;52.218;5.158;2022-08-11T09:40:20;10.02;;;5.85;;
69754;SDS011;57023;52.218;5.158;2022-08-11T09:42:55;11.00;;;6.03;;
69754;SDS011;57023;52.218;5.158;2022-08-11T09:45:47;9.93;;;5.82;;
69754;SDS011;57023;52.218;5.158;2022-08-11T09:48:15;10.38;;;5.95;;
69754;SDS011;57023;52.218;5.158;2022-08-11T09:50:48;10.00;;;5.80;;
69754;SDS011;57023;52.218;5.158;2022-08-11T09:53:15;7.70;;;5.82;;
69754;SDS011;57023;52.218;5.158;2022-08-11T09:55:42;12.25;;;6.32;;
69754;SDS011;57023;52.218;5.158;2022-08-11T09:58:09;11.15;;;5.70;;
69754;SDS011;57023;52.218;5.158;2022-08-11T10:00:37;7.75;;;6.22;;
69754;SDS011;57023;52.218;5.158;2022-08-11T10:03:07;12.73;;;6.07;;
69754;SDS011;57023;52.218;5.158;2022-08-11T10:05:34;9.00;;;5.88;;
69754;SDS011;57023;52.218;5.158;2022-08-11T10:13:18;11.00;;;5.50;;
69754;SDS011;57023;52.218;5.158;2022-08-11T10:15:49;11.00;;;5.70;;
69754;SDS011;57023;52.218;5.158;2022-08-11T10:18:19;9.10;;;5.65;;
69754;SDS011;57023;52.218;5.158;2022-08-11T10:23:58;8.77;;;6.20;;
69754;SDS011;57023;52.218;5.158;2022-08-11T10:26:43;10.30;;;5.90;;
69754;SDS011;57023;52.218;5.158;2022-08-11T10:29:30;9.48;;;5.45;;
69754;SDS011;57023;52.218;5.158;2022-08-11T10:32:24;13.02;;;5.40;;
69754;SDS011;57023;52.218;5.158;2022-08-11T10:35:13;10.15;;;5.75;;
69754;SDS011;57023;52.218;5.158;2022-08-11T10:37:40;8.80;;;5.70;;
69754;SDS011;57023;52.218;5.158;2022-08-11T10:40:12;9.52;;;5.63;;
69754;SDS011;57023;52.218;5.158;2022-08-11T10:42:39;9.75;;;5.65;;
69754;SDS011;57023;52.218;5.158;2022-08-11T10:45:23;10.98;;;5.80;;
69754;SDS011;57023;52.218;5.158;2022-08-11T10:48:07;9.60;;;5.60;;
69754;SDS011;57023;52.218;5.158;2022-08-11T10:50:34;9.63;;;5.38;;
69754;SDS011;57023;52.218;5.158;2022-08-11T10:53:19;8.65;;;5.70;;
69754;SDS011;57023;52.218;5.158;2022-08-11T10:56:03;9.48;;;5.32;;
69754;SDS011;57023;52.218;5.158;2022-08-11T10:58:47;11.57;;;5.78;;
69754;SDS011;57023;52.218;5.158;2022-08-11T11:01:22;11.20;;;5.40;;
69754;SDS011;57023;52.218;5.158;2022-08-11T11:03:50;10.95;;;5.70;;
69754;SDS011;57023;52.218;5.158;2022-08-11T11:06:20;14.27;;;5.82;;
69754;SDS011;57023;52.218;5.158;2022-08-11T11:08:50;9.43;;;5.78;;
69754;SDS011;57023;52.218;5.158;2022-08-11T11:11:17;11.57;;;5.82;;
69754;SDS011;57023;52.218;5.158;2022-08-11T11:13:45;8.68;;;5.60;;
69754;SDS011;57023;52.218;5.158;2022-08-11T11:16:30;8.65;;;5.28;;
69754;SDS011;57023;52.218;5.158;2022-08-11T11:19:16;10.07;;;6.10;;
69754;SDS011;57023;52.218;5.158;2022-08-11T11:21:44;8.98;;;5.60;;
69754;SDS011;57023;52.218;5.158;2022-08-11T11:24:29;10.40;;;5.60;;
69754;SDS011;57023;52.218;5.158;2022-08-11T11:27:07;9.23;;;5.40;;
69754;SDS011;57023;52.218;5.158;2022-08-11T11:37:40;7.85;;;5.88;;
69754;SDS011;57023;52.218;5.158;2022-08-11T11:40:12;8.07;;;5.50;;
69754;SDS011;57023;52.218;5.158;2022-08-11T11:42:39;8.35;;;5.68;;
69754;SDS011;57023;52.218;5.158;2022-08-11T11:45:07;7.70;;;5.50;;
69754;SDS011;57023;52.218;5.158;2022-08-11T11:47:33;11.18;;;5.75;;
69754;SDS011;57023;52.218;5.158;2022-08-11T11:50:00;10.88;;;5.80;;
69754;SDS011;57023;52.218;5.158;2022-08-11T11:52:26;13.95;;;5.70;;
69754;SDS011;57023;52.218;5.158;2022-08-11T11:54:53;9.48;;;5.85;;
69754;SDS011;57023;52.218;5.158;2022-08-11T11:57:19;9.63;;;6.00;;
69754;SDS011;57023;52.218;5.158;2022-08-11T12:00:04;9.32;;;5.40;;
69754;SDS011;57023;52.218;5.158;2022-08-11T12:02:49;9.82;;;5.65;;
69754;SDS011;57023;52.218;5.158;2022-08-11T12:07:41;8.70;;;5.77;;
69754;SDS011;57023;52.218;5.158;2022-08-11T12:10:25;9.82;;;5.70;;
69754;SDS011;57023;52.218;5.158;2022-08-11T12:15:34;11.75;;;5.70;;
69754;SDS011;57023;52.218;5.158;2022-08-11T12:18:00;10.25;;;5.32;;
69754;SDS011;57023;52.218;5.158;2022-08-11T12:25:35;9.43;;;5.38;;
69754;SDS011;57023;52.218;5.158;2022-08-11T12:28:19;8.57;;;5.30;;
69754;SDS011;57023;52.218;5.158;2022-08-11T12:30:49;6.85;;;5.32;;
69754;SDS011;57023;52.218;5.158;2022-08-11T12:33:15;8.15;;;5.20;;
69754;SDS011;57023;52.218;5.158;2022-08-11T12:35:41;10.40;;;4.97;;
69754;SDS011;57023;52.218;5.158;2022-08-11T12:38:07;7.38;;;4.80;;
69754;SDS011;57023;52.218;5.158;2022-08-11T12:40:33;9.52;;;4.13;;
69754;SDS011;57023;52.218;5.158;2022-08-11T12:43:19;7.97;;;4.60;;
69754;SDS011;57023;52.218;5.158;2022-08-11T12:46:08;6.57;;;4.57;;
69754;SDS011;57023;52.218;5.158;2022-08-11T12:48:36;8.93;;;4.63;;
69754;SDS011;57023;52.218;5.158;2022-08-11T12:51:25;8.05;;;4.30;;
69754;SDS011;57023;52.218;5.158;2022-08-11T12:54:16;8.35;;;4.68;;
69754;SDS011;57023;52.218;5.158;2022-08-11T12:56:49;6.90;;;4.75;;
69754;SDS011;57023;52.218;5.158;2022-08-11T12:59:35;6.05;;;4.45;;
69754;SDS011;57023;52.218;5.158;2022-08-11T13:02:20;8.23;;;4.95;;
69754;SDS011;57023;52.218;5.158;2022-08-11T13:05:06;8.63;;;5.05;;
69754;SDS011;57023;52.218;5.158;2022-08-11T13:07:32;8.25;;;4.63;;
69754;SDS011;57023;52.218;5.158;2022-08-11T13:10:00;6.82;;;4.45;;
69754;SDS011;57023;52.218;5.158;2022-08-11T13:12:26;6.70;;;4.55;;
69754;SDS011;57023;52.218;5.158;2022-08-11T13:15:12;6.20;;;4.38;;
69754;SDS011;57023;52.218;5.158;2022-08-11T13:17:39;9.65;;;4.93;;
69754;SDS011;57023;52.218;5.158;2022-08-11T13:20:06;7.07;;;4.47;;
69754;SDS011;57023;52.218;5.158;2022-08-11T13:22:33;10.50;;;5.00;;
69754;SDS011;57023;52.218;5.158;2022-08-11T13:24:58;8.80;;;5.10;;
69754;SDS011;57023;52.218;5.158;2022-08-11T13:27:24;6.55;;;4.60;;
69754;SDS011;57023;52.218;5.158;2022-08-11T13:29:50;8.57;;;5.10;;
69754;SDS011;57023;52.218;5.158;2022-08-11T13:32:36;7.18;;;4.50;;
69754;SDS011;57023;52.218;5.158;2022-08-11T13:35:02;8.00;;;4.70;;
69754;SDS011;57023;52.218;5.158;2022-08-11T13:37:28;8.68;;;5.00;;
69754;SDS011;57023;52.218;5.158;2022-08-11T13:39:53;5.88;;;4.82;;
69754;SDS011;57023;52.218;5.158;2022-08-11T13:42:19;7.30;;;4.70;;
69754;SDS011;57023;52.218;5.158;2022-08-11T13:44:44;8.05;;;4.80;;
69754;SDS011;57023;52.218;5.158;2022-08-11T13:47:11;8.27;;;4.75;;
69754;SDS011;57023;52.218;5.158;2022-08-11T13:49:38;6.72;;;4.22;;
69754;SDS011;57023;52.218;5.158;2022-08-11T13:52:04;9.95;;;4.80;;
69754;SDS011;57023;52.218;5.158;2022-08-11T13:54:32;8.77;;;5.10;;
69754;SDS011;57023;52.218;5.158;2022-08-11T13:57:06;11.05;;;5.00;;
69754;SDS011;57023;52.218;5.158;2022-08-11T13:59:32;9.05;;;4.80;;
69754;SDS011;57023;52.218;5.158;2022-08-11T14:01:59;6.93;;;4.70;;
69754;SDS011;57023;52.218;5.158;2022-08-11T14:04:30;7.63;;;4.50;;
69754;SDS011;57023;52.218;5.158;2022-08-11T14:06:59;6.88;;;4.80;;
69754;SDS011;57023;52.218;5.158;2022-08-11T14:09:29;6.53;;;4.63;;
69754;SDS011;57023;52.218;5.158;2022-08-11T14:12:03;9.73;;;4.82;;
69754;SDS011;57023;52.218;5.158;2022-08-11T14:14:54;8.02;;;4.90;;
69754;SDS011;57023;52.218;5.158;2022-08-11T14:17:24;7.53;;;4.97;;
69754;SDS011;57023;52.218;5.158;2022-08-11T14:19:50;7.45;;;4.60;;
69754;SDS011;57023;52.218;5.158;2022-08-11T14:22:16;7.03;;;4.60;;
69754;SDS011;57023;52.218;5.158;2022-08-11T14:24:42;7.50;;;4.63;;
69754;SDS011;57023;52.218;5.158;2022-08-11T14:27:13;6.32;;;4.72;;
69754;SDS011;57023;52.218;5.158;2022-08-11T14:29:40;6.25;;;4.55;;
69754;SDS011;57023;52.218;5.158;2022-08-11T14:32:06;7.57;;;4.80;;
69754;SDS011;57023;52.218;5.158;2022-08-11T14:34:34;5.53;;;4.43;;
69754;SDS011;57023;52.218;5.158;2022-08-11T14:37:02;7.07;;;4.82;;
69754;SDS011;57023;52.218;5.158;2022-08-11T14:39:33;8.88;;;4.60;;
69754;SDS011;57023;52.218;5.158;2022-08-11T14:42:01;5.25;;;4.68;;
69754;SDS011;57023;52.218;5.158;2022-08-11T14:44:55;8.45;;;4.50;;
69754;SDS011;57023;52.218;5.158;2022-08-11T14:47:49;11.05;;;4.60;;
69754;SDS011;57023;52.218;5.158;2022-08-11T14:50:17;7.57;;;4.47;;
69754;SDS011;57023;52.218;5.158;2022-08-11T14:53:06;8.07;;;4.70;;
69754;SDS011;57023;52.218;5.158;2022-08-11T14:55:35;6.72;;;4.70;;
69754;SDS011;57023;52.218;5.158;2022-08-11T14:58:22;9.65;;;4.40;;
69754;SDS011;57023;52.218;5.158;2022-08-11T15:00:54;7.95;;;4.25;;
69754;SDS011;57023;52.218;5.158;2022-08-11T15:03:21;11.55;;;4.35;;
69754;SDS011;57023;52.218;5.158;2022-08-11T15:08:18;5.72;;;4.38;;
69754;SDS011;57023;52.218;5.158;2022-08-11T15:10:45;7.13;;;4.22;;
69754;SDS011;57023;52.218;5.158;2022-08-11T15:13:14;8.13;;;4.65;;
69754;SDS011;57023;52.218;5.158;2022-08-11T15:15:42;8.02;;;4.65;;
69754;SDS011;57023;52.218;5.158;2022-08-11T15:18:25;7.15;;;4.60;;
69754;SDS011;57023;52.218;5.158;2022-08-11T15:20:51;6.35;;;4.43;;
69754;SDS011;57023;52.218;5.158;2022-08-11T15:23:37;6.90;;;4.47;;
69754;SDS011;57023;52.218;5.158;2022-08-11T15:26:23;6.25;;;4.45;;
69754;SDS011;57023;52.218;5.158;2022-08-11T15:29:13;9.20;;;4.68;;
69754;SDS011;57023;52.218;5.158;2022-08-11T15:31:58;8.13;;;4.45;;
69754;SDS011;57023;52.218;5.158;2022-08-11T15:34:42;8.75;;;4.72;;
69754;SDS011;57023;52.218;5.158;2022-08-11T15:37:27;9.68;;;5.43;;
69754;SDS011;57023;52.218;5.158;2022-08-11T15:42:50;10.15;;;4.88;;
69754;SDS011;57023;52.218;5.158;2022-08-11T15:45:35;8.98;;;5.15;;
69754;SDS011;57023;52.218;5.158;2022-08-11T15:48:13;8.40;;;4.88;;
69754;SDS011;57023;52.218;5.158;2022-08-11T15:50:45;7.82;;;4.80;;
69754;SDS011;57023;52.218;5.158;2022-08-11T15:53:49;9.48;;;5.00;;
69754;SDS011;57023;52.218;5.158;2022-08-11T15:56:07;8.90;;;4.90;;
69754;SDS011;57023;52.218;5.158;2022-08-11T15:58:35;8.07;;;4.80;;
69754;SDS011;57023;52.218;5.158;2022-08-11T16:01:22;7.28;;;4.70;;
69754;SDS011;57023;52.218;5.158;2022-08-11T16:04:13;8.88;;;4.60;;
69754;SDS011;57023;52.218;5.158;2022-08-11T16:06:42;7.18;;;4.55;;
69754;SDS011;57023;52.218;5.158;2022-08-11T16:09:36;10.40;;;4.50;;
69754;SDS011;57023;52.218;5.158;2022-08-11T16:12:05;9.02;;;4.32;;
69754;SDS011;57023;52.218;5.158;2022-08-11T16:14:38;7.60;;;4.93;;
69754;SDS011;57023;52.218;5.158;2022-08-11T16:17:25;10.40;;;5.40;;
69754;SDS011;57023;52.218;5.158;2022-08-11T16:19:52;8.18;;;4.90;;
69754;SDS011;57023;52.218;5.158;2022-08-11T16:22:20;11.70;;;5.10;;
69754;SDS011;57023;52.218;5.158;2022-08-11T16:24:59;9.45;;;4.88;;
69754;SDS011;57023;52.218;5.158;2022-08-11T16:27:25;6.47;;;4.80;;
69754;SDS011;57023;52.218;5.158;2022-08-11T16:29:51;8.32;;;4.97;;
69754;SDS011;57023;52.218;5.158;2022-08-11T16:32:20;7.30;;;4.60;;
69754;SDS011;57023;52.218;5.158;2022-08-11T16:37:41;7.90;;;4.70;;
69754;SDS011;57023;52.218;5.158;2022-08-11T16:40:26;7.70;;;4.15;;
69754;SDS011;57023;52.218;5.158;2022-08-11T16:42:53;8.15;;;4.50;;
69754;SDS011;57023;52.218;5.158;2022-08-11T16:45:38;7.63;;;4.22;;
69754;SDS011;57023;52.218;5.158;2022-08-11T16:48:24;8.05;;;4.20;;
69754;SDS011;57023;52.218;5.158;2022-08-11T16:50:53;8.68;;;4.07;;
69754;SDS011;57023;52.218;5.158;2022-08-11T16:53:19;10.85;;;4.25;;
69754;SDS011;57023;52.218;5.158;2022-08-11T16:55:45;8.60;;;4.27;;
69754;SDS011;57023;52.218;5.158;2022-08-11T16:58:11;8.43;;;4.50;;
69754;SDS011;57023;52.218;5.158;2022-08-11T17:00:56;6.95;;;4.00;;
69754;SDS011;57023;52.218;5.158;2022-08-11T17:03:22;5.72;;;4.15;;
69754;SDS011;57023;52.218;5.158;2022-08-11T17:06:06;8.20;;;4.15;;
69754;SDS011;57023;52.218;5.158;2022-08-11T17:08:51;8.35;;;4.28;;
69754;SDS011;57023;52.218;5.158;2022-08-11T17:11:38;8.45;;;4.93;;
69754;SDS011;57023;52.218;5.158;2022-08-11T17:14:37;7.30;;;4.60;;
69754;SDS011;57023;52.218;5.158;2022-08-11T17:17:08;8.32;;;4.38;;
69754;SDS011;57023;52.218;5.158;2022-08-11T17:19:36;9.25;;;4.38;;
69754;SDS011;57023;52.218;5.158;2022-08-11T17:22:06;7.30;;;4.30;;
69754;SDS011;57023;52.218;5.158;2022-08-11T17:24:50;6.70;;;4.20;;
69754;SDS011;57023;52.218;5.158;2022-08-11T17:27:17;6.07;;;4.40;;
69754;SDS011;57023;52.218;5.158;2022-08-11T17:29:51;6.95;;;4.20;;
69754;SDS011;57023;52.218;5.158;2022-08-11T17:32:20;5.95;;;4.43;;
69754;SDS011;57023;52.218;5.158;2022-08-11T17:35:12;10.63;;;5.28;;
69754;SDS011;57023;52.218;5.158;2022-08-11T17:38:17;8.57;;;5.10;;
69754;SDS011;57023;52.218;5.158;2022-08-11T17:40:48;8.55;;;4.63;;
69754;SDS011;57023;52.218;5.158;2022-08-11T17:43:35;8.15;;;4.95;;
69754;SDS011;57023;52.218;5.158;2022-08-11T17:46:19;9.70;;;4.47;;
69754;SDS011;57023;52.218;5.158;2022-08-11T17:49:04;9.48;;;4.50;;
69754;SDS011;57023;52.218;5.158;2022-08-11T17:51:33;6.15;;;4.55;;
69754;SDS011;57023;52.218;5.158;2022-08-11T17:54:19;6.80;;;4.37;;
69754;SDS011;57023;52.218;5.158;2022-08-11T17:57:04;7.55;;;4.20;;
69754;SDS011;57023;52.218;5.158;2022-08-11T17:59:49;7.93;;;4.10;;
69754;SDS011;57023;52.218;5.158;2022-08-11T18:02:20;8.07;;;4.28;;
69754;SDS011;57023;52.218;5.158;2022-08-11T18:05:06;7.93;;;4.50;;
69754;SDS011;57023;52.218;5.158;2022-08-11T18:07:33;9.10;;;4.70;;
69754;SDS011;57023;52.218;5.158;2022-08-11T18:10:17;7.30;;;4.32;;
69754;SDS011;57023;52.218;5.158;2022-08-11T18:13:01;7.22;;;4.30;;
69754;SDS011;57023;52.218;5.158;2022-08-11T18:15:44;6.30;;;4.10;;
69754;SDS011;57023;52.218;5.158;2022-08-11T18:18:28;6.43;;;4.50;;
69754;SDS011;57023;52.218;5.158;2022-08-11T18:21:13;7.70;;;4.38;;
69754;SDS011;57023;52.218;5.158;2022-08-11T18:24:03;6.20;;;4.28;;
69754;SDS011;57023;52.218;5.158;2022-08-11T18:26:49;10.30;;;4.25;;
69754;SDS011;57023;52.218;5.158;2022-08-11T18:29:33;6.60;;;4.10;;
69754;SDS011;57023;52.218;5.158;2022-08-11T18:32:18;7.63;;;4.28;;
69754;SDS011;57023;52.218;5.158;2022-08-11T18:35:03;6.63;;;4.25;;
69754;SDS011;57023;52.218;5.158;2022-08-11T18:37:49;7.95;;;4.70;;
69754;SDS011;57023;52.218;5.158;2022-08-11T18:40:34;9.20;;;4.40;;
69754;SDS011;57023;52.218;5.158;2022-08-11T18:43:18;8.25;;;4.65;;
69754;SDS011;57023;52.218;5.158;2022-08-11T18:46:04;7.63;;;4.57;;
69754;SDS011;57023;52.218;5.158;2022-08-11T18:48:51;8.90;;;4.72;;
69754;SDS011;57023;52.218;5.158;2022-08-11T18:51:37;9.15;;;4.60;;
69754;SDS011;57023;52.218;5.158;2022-08-11T18:54:22;7.75;;;4.32;;
69754;SDS011;57023;52.218;5.158;2022-08-11T18:57:07;9.20;;;4.77;;
69754;SDS011;57023;52.218;5.158;2022-08-11T18:59:52;7.55;;;4.55;;
69754;SDS011;57023;52.218;5.158;2022-08-11T19:02:36;6.97;;;4.47;;
69754;SDS011;57023;52.218;5.158;2022-08-11T19:05:21;8.23;;;4.70;;
69754;SDS011;57023;52.218;5.158;2022-08-11T19:08:06;7.45;;;4.22;;
69754;SDS011;57023;52.218;5.158;2022-08-11T19:10:51;10.15;;;4.65;;
69754;SDS011;57023;52.218;5.158;2022-08-11T19:13:35;6.88;;;4.85;;
69754;SDS011;57023;52.218;5.158;2022-08-11T19:16:21;7.25;;;4.72;;
69754;SDS011;57023;52.218;5.158;2022-08-11T19:19:07;8.43;;;4.97;;
69754;SDS011;57023;52.218;5.158;2022-08-11T19:21:53;6.32;;;4.93;;
69754;SDS011;57023;52.218;5.158;2022-08-11T19:24:37;7.43;;;5.40;;
69754;SDS011;57023;52.218;5.158;2022-08-11T19:27:23;8.23;;;4.90;;
69754;SDS011;57023;52.218;5.158;2022-08-11T19:30:10;8.50;;;4.95;;